Cazaux (BA 120) Air Base

LFBC · Landes, Nouvelle-Aquitaine, Francja

Historia METAR LFBC · Cazaux (BA 120) Air Base

Poniżej widzisz METAR-y z ostatnich kilku dni. Wybierz rok, aby przeglądać starsze METAR-y, począwszy od roku 2007.

5 marca 2024

Czas Kod Pogoda Temp. Widoczność Sufit Wiatr METAR/SPECI
07:30
V
8 °C 10 km+ 4.500 ft 270° 270° 7 kt METAR LFBC 050630Z AUTO 27007KT 9999 FEW017/// BKN045/// BKN052/// //////CB 08/05 Q1019 TEMPO 30015G25KT 1000 TSRAGS BKN014 BKN025CB
07:30
V
8 °C 10 km+ 4.500 ft 270° 270° 7 kt METAR LFBC 050630Z AUTO 27007KT 9999 FEW017/// BKN045/// BKN052/// ///CB 08/05 Q1019 TEMPO 30015G25KT 1000 TSRAGS BKN014 BKN025CB
07:00
V
8 °C 10 km+ - 290° 290° 5 kt METAR LFBC 050600Z AUTO 29005KT 9999 //////CB 08/04 Q1019 TEMPO 30015G25KT 1000 TSRAGS BKN014 BKN025CB
06:30
V
8 °C 10 km+ - 310° 310° 11 kt METAR LFBC 050530Z AUTO 31011KT 280V340 9999 FEW038/// //////TCU 08/04 Q1019 TEMPO 30015G25KT 1000 TSRAGS BKN014 BKN025CB
06:00
V
7 °C 10 km+ 4.400 ft 280° 280° 6 kt METAR LFBC 050500Z AUTO 28006KT 260V320 9999 FEW018/// SCT027/// BKN044/// ///CB 07/05 Q1018
05:30
V
7 °C 10 km+ 6.400 ft 220° 220° 6 kt METAR LFBC 050430Z AUTO 22006KT 9999 VCTS FEW040/// SCT048/// BKN064/// //////CB 07/05 Q1018
05:00
V
8 °C 10 km+ - 290° 290° 5 kt METAR LFBC 050400Z AUTO 29005KT 260V320 9999 //////CB 08/05 Q1018
04:30
V
8 °C 10 km+ 4.900 ft 300° 300° 14 kt METAR LFBC 050330Z AUTO 30014KT 270V330 9999 FEW034/// BKN049/// BKN062/// //////CB 08/05 Q1018
04:00
V
9 °C 10 km+ 3.900 ft 280° 280° 13 - 26 kt METAR LFBC 050300Z AUTO 28013G26KT 240V330 9999 FEW024/// BKN039/// BKN068/// //////CB 09/05 Q1017
03:30
V
9 °C 10 km+ 7.200 ft 280° 280° 15 kt METAR LFBC 050230Z AUTO 28015KT 9999 FEW036/// SCT058/// BKN072/// //////CB 09/05 Q1017
03:00
V
10 °C 10 km+ 10.000 ft 260° 260° 12 kt METAR LFBC 050200Z AUTO 26012KT 9999 FEW037/// BKN100/// OVC120/// //////TCU 10/05 Q1017
02:30
V
10 °C 10 km+ 6.000 ft 260° 260° 15 - 26 kt METAR LFBC 050130Z AUTO 26015G26KT 9999 FEW047/// BKN060/// OVC078/// ///CB 10/05 Q1017
02:00
V
10 °C 10 km+ 3.600 ft 270° 270° 12 kt METAR LFBC 050100Z AUTO 27012KT 240V300 9999 FEW028/// BKN036/// BKN052/// //////TCU 10/06 Q1017
01:30
V
10 °C 10 km+ 6.800 ft 270° 270° 12 kt METAR LFBC 050030Z AUTO 27012KT 9999 FEW031/// SCT056/// OVC068/// //////CB 10/05 Q1017
01:00
V
11 °C 10 km+ 7.600 ft 280° 280° 13 kt METAR LFBC 050000Z AUTO 28013KT 250V310 9999 FEW033/// SCT060/// BKN076/// //////TCU 11/05 Q1016
00:30
V
11 °C 10 km+ 3.700 ft 280° 280° 12 kt METAR LFBC 042330Z AUTO 28012KT 250V310 9999 BKN037 BKN066 OVC094 11/05 Q1016
00:00
V
11 °C 10 km+ 10.000 ft 280° 280° 11 kt METAR LFBC 042300Z AUTO 28011KT 250V310 9999 FEW033 OVC100 11/05 Q1016

4 marca 2024

Czas Kod Pogoda Temp. Widoczność Sufit Wiatr METAR/SPECI
23:30
V
11 °C 10 km+ - 270° 270° 10 kt METAR LFBC 042230Z AUTO 27010KT CAVOK 11/06 Q1016
23:00
V
11 °C 10 km+ 10.000 ft 270° 270° 11 kt METAR LFBC 042200Z AUTO 27011KT 9999 FEW033/// SCT086/// BKN100/// //////TCU 11/06 Q1016
22:30
V
11 °C 10 km+ 3.300 ft 270° 270° 10 kt METAR LFBC 042130Z AUTO 27010KT 240V310 9999 BKN033 BKN110 OVC150 11/06 Q1016
22:00
V
11 °C 10 km+ - 270° 270° 9 kt METAR LFBC 042100Z AUTO 27009KT CAVOK 11/06 Q1015
21:30
V
11 °C 10 km+ 3.800 ft 290° 290° 10 kt METAR LFBC 042030Z AUTO 29010KT 9999 SCT032 BKN038 BKN045 11/07 Q1015
20:30
V
10 °C 10 km+ 3.800 ft 290° 290° 6 kt METAR LFBC 041930Z AUTO 29006KT 260V320 9999 OVC038 10/06 Q1015
20:00
V
10 °C 10 km+ 3.200 ft 290° 290° 6 kt METAR LFBC 041900Z AUTO 29006KT 260V320 9999 BKN032 BKN039 OVC046 10/07 Q1014 TEMPO VRB15G25KT 4000 SHRA BKN025TCU
19:30
V
10 °C 10 km+ 3.200 ft 290° 290° 4 kt METAR LFBC 041830Z AUTO 29004KT 9999 BKN032 OVC039 10/07 Q1014 TEMPO VRB15G25KT 4000 SHRA BKN025TCU
19:00
V
10 °C 10 km+ - 310° 310° 7 kt METAR LFBC 041800Z AUTO 31007KT 9999 FEW028 SCT037 10/07 Q1013 BECMG RA
18:30
V
11 °C 10 km+ 5.800 ft 300° 300° 7 kt METAR LFBC 041730Z AUTO 30007KT 270V350 9999 FEW015 SCT035 BKN058 11/09 Q1013 BECMG RA
18:00
M
10 °C 7 km 1.800 ft 190° 190° 4 kt METAR LFBC 041700Z AUTO 19004KT 170V260 7000 -RA BKN018 BKN025 OVC050 10/09 Q1013 BECMG RA
17:30
V
10 °C 10 km+ 5.800 ft 180° 180° 6 kt METAR LFBC 041630Z AUTO 18006KT 9999 SCT026 SCT049 BKN058 10/09 Q1012 BECMG RA
17:00
V
9 °C 10 km+ - 180° 180° 4 kt METAR LFBC 041600Z AUTO 18004KT 9999 -RA NSC 09/08 Q1012 BECMG RA
16:30
V
9 °C 10 km+ 3.700 ft 220° 220° 6 kt METAR LFBC 041530Z AUTO 22006KT 9999 -RA SCT023/// BKN037/// BKN045/// //////TCU 09/08 Q1012 BECMG RA NSC
16:00
M
9 °C 10 km+ 2.700 ft 220° 220° 5 kt METAR LFBC 041500Z AUTO 22005KT 160V270 9999 -RA BKN027/// OVC039/// //////TCU 09/07 Q1012 BECMG RA NSC
15:30
V
10 °C 10 km+ 5.400 ft 180° 180° 7 kt METAR LFBC 041430Z AUTO 18007KT 9999 -RA SCT048/// BKN054/// OVC072/// //////TCU 10/08 Q1011 BECMG RA NSC
15:00
V
10 °C 10 km+ - 180° 180° 6 kt METAR LFBC 041400Z AUTO 18006KT 9999 -RA ///TCU 10/07 Q1011 TEMPO BKN014 BECMG 4000 RA
14:30
V
9 °C 10 km+ - 150° 150° 8 kt METAR LFBC 041330Z AUTO 15008KT 9999 -RA NSC 09/07 Q1011 TEMPO BKN014 BECMG 4000 RA
14:00
V
10 °C 10 km+ - 180° 180° 9 kt METAR LFBC 041300Z AUTO 18009KT 9999 RA //////TCU 10/06 Q1012 TEMPO BKN014 BECMG 4000 RA
13:30
V
10 °C 10 km+ - 160° 160° 11 kt METAR LFBC 041230Z AUTO 16011KT CAVOK 10/05 Q1012 TEMPO BKN014 BECMG 4000 RA
13:00
V
10 °C 10 km+ - 160° 160° 10 kt METAR LFBC 041200Z AUTO 16010KT CAVOK 10/05 Q1012 BECMG 4000 RA
12:30
V
10 °C 10 km+ - 150° 150° 11 kt METAR LFBC 041130Z AUTO 15011KT CAVOK 10/05 Q1012 BECMG 4000 RA
12:00
V
10 °C 10 km+ - 160° 160° 12 kt METAR LFBC 041100Z AUTO 16012KT CAVOK 10/05 Q1012 BECMG 4000 RA
11:30
V
10 °C 10 km+ - 160° 160° 13 kt METAR LFBC 041030Z AUTO 16013KT CAVOK 10/05 Q1012 BECMG 4000 RA
11:00
V
9 °C 10 km+ - 160° 160° 12 kt METAR LFBC 041000Z AUTO 16012KT CAVOK 09/06 Q1012 NOSIG
10:30
V
9 °C 10 km+ - 150° 150° 8 kt METAR LFBC 040930Z AUTO 15008KT CAVOK 09/06 Q1013 NOSIG
10:00
V
7 °C 10 km+ - 140° 140° 9 kt METAR LFBC 040900Z AUTO 14009KT CAVOK 07/05 Q1012 NOSIG
09:30
V
7 °C 10 km+ - 150° 150° 8 kt METAR LFBC 040830Z AUTO 15008KT CAVOK 07/05 Q1013 NOSIG
09:00
V
6 °C 10 km+ - 160° 160° 7 kt METAR LFBC 040800Z AUTO 16007KT CAVOK 06/04 Q1013 NOSIG
08:30
V
5 °C 10 km+ - 170° 170° 7 kt METAR LFBC 040730Z AUTO 17007KT CAVOK 05/04 Q1013 NOSIG
08:00
V
5 °C 10 km+ - 170° 170° 8 kt METAR LFBC 040700Z AUTO 17008KT CAVOK 05/04 Q1013 NOSIG
07:30
V
4 °C 10 km+ - 170° 170° 6 kt METAR LFBC 040630Z AUTO 17006KT CAVOK 04/03 Q1013 NOSIG
07:00
V
4 °C 10 km+ - 170° 170° 6 kt METAR LFBC 040600Z AUTO 17006KT CAVOK 04/03 Q1013
06:30
V
5 °C 10 km+ - 190° 190° 7 kt METAR LFBC 040530Z AUTO 19007KT CAVOK 05/04 Q1013
06:00
V
5 °C 10 km+ - 190° 190° 7 kt METAR LFBC 040500Z AUTO 19007KT CAVOK 05/04 Q1014
05:30
V
4 °C 10 km+ - 180° 180° 8 kt METAR LFBC 040430Z AUTO 18008KT CAVOK 04/04 Q1014
05:00
V
4 °C 10 km+ - 170° 170° 7 kt METAR LFBC 040400Z AUTO 17007KT CAVOK 04/03 Q1014
04:30
V
4 °C 10 km+ - 170° 170° 7 kt METAR LFBC 040330Z AUTO 17007KT 9999 FEW037 04/03 Q1014
04:00
V
4 °C 10 km+ 3.800 ft 190° 190° 5 kt METAR LFBC 040300Z AUTO 19005KT 9999 BKN038 04/04 Q1014
03:30
V
4 °C 10 km+ - 200° 200° 8 kt METAR LFBC 040230Z AUTO 20008KT 9999 SCT039 04/04 Q1014
03:00
V
3 °C 10 km+ - 200° 200° 4 kt METAR LFBC 040200Z AUTO 20004KT CAVOK 03/03 Q1014
02:30
V
3 °C 10 km+ - 190° 190° 3 kt METAR LFBC 040130Z AUTO 19003KT 130V210 CAVOK 03/03 Q1014
02:00
V
4 °C 10 km+ - 170° 170° 3 kt METAR LFBC 040100Z AUTO 17003KT CAVOK 04/04 Q1014
01:30
V
4 °C 10 km+ - 220° 220° 5 kt METAR LFBC 040030Z AUTO 22005KT CAVOK 04/03 Q1014
01:00
V
5 °C 10 km+ - 200° 200° 5 kt METAR LFBC 040000Z AUTO 20005KT 9999 FEW040 05/04 Q1014
00:30
V
5 °C 10 km+ - 210° 210° 7 kt METAR LFBC 032330Z AUTO 21007KT 9999 FEW038 05/05 Q1014
00:00
V
4 °C 10 km+ - 240° 240° 4 kt METAR LFBC 032300Z AUTO 24004KT CAVOK 04/03 Q1014

3 marca 2024

Czas Kod Pogoda Temp. Widoczność Sufit Wiatr METAR/SPECI
23:30
V
4 °C 10 km+ - Var Var 3 kt METAR LFBC 032230Z AUTO VRB03KT 9999 FEW040 04/03 Q1014
23:00
V
6 °C 10 km+ - Var Var 1 kt METAR LFBC 032200Z AUTO VRB01KT CAVOK 06/04 Q1014
22:30
V
7 °C 10 km+ 3.600 ft 020° 020° 4 kt METAR LFBC 032130Z AUTO 02004KT 9999 BKN036/// BKN052/// //////TCU 07/04 Q1014
22:00
V
7 °C 10 km+ 3.800 ft 330° 330° 6 kt METAR LFBC 032100Z AUTO 33006KT 270V010 9999 BKN038/// OVC044/// //////TCU 07/05 Q1014
21:30
V
7 °C 10 km+ - 260° 260° 7 kt METAR LFBC 032030Z AUTO 26007KT 9999 FEW044/// SCT140/// //////TCU 07/05 Q1013
21:00
V
6 °C 10 km+ - 230° 230° 2 kt METAR LFBC 032000Z AUTO 23002KT 9999 //////TCU 06/04 Q1013
20:30
V
7 °C 10 km+ - Var Var 2 kt METAR LFBC 031930Z AUTO VRB02KT 9999 FEW045/// SCT054/// //////TCU 07/04 Q1013
20:00
V
8 °C 10 km+ 5.400 ft 260° 260° 7 kt METAR LFBC 031900Z AUTO 26007KT 9999 SCT038/// SCT044/// BKN054/// //////CB 08/04 Q1013
19:30
V
8 °C 10 km+ 6.000 ft 250° 250° 6 kt METAR LFBC 031830Z AUTO 25006KT 9999 SCT040/// BKN060/// BKN082/// ///TCU 08/05 Q1012
19:00
V
8 °C 10 km+ 5.800 ft Var Var 3 kt METAR LFBC 031800Z AUTO VRB03KT 9999 FEW035/// BKN058/// BKN160/// //////CB 08/05 Q1011
18:30
V
8 °C 10 km+ - 320° 320° 3 kt METAR LFBC 031730Z AUTO 32003KT 9999 FEW038/// ///TCU 08/04 Q1011
18:00
V
9 °C 10 km+ - Var Var 2 kt METAR LFBC 031700Z AUTO VRB02KT 9999 FEW040/// //////TCU 09/05 Q1010
17:30
V
9 °C 10 km+ 4.400 ft 350° 350° 8 kt METAR LFBC 031630Z AUTO 35008KT 320V020 9999 FEW008/// SCT034/// BKN044/// ///TCU 09/05 Q1010
17:00
V
10 °C 10 km+ 4.400 ft 340° 340° 9 kt METAR LFBC 031600Z AUTO 34009KT 280V020 9999 FEW037/// BKN044/// BKN140/// //////CB 10/04 Q1010
16:30
V
11 °C 10 km+ 3.600 ft 350° 350° 10 kt METAR LFBC 031530Z AUTO 35010KT 320V030 9999 BKN036/// BKN047/// //////CB 11/03 Q1009
16:00
V
11 °C 10 km+ 3.300 ft 340° 340° 13 kt METAR LFBC 031500Z AUTO 34013KT 310V010 9999 BKN033 11/04 Q1009
15:30
V
12 °C 10 km+ 3.500 ft 330° 330° 13 kt METAR LFBC 031430Z AUTO 33013KT 290V010 9999 BKN035 12/05 Q1008
15:00
V
11 °C 10 km+ 3.200 ft 330° 330° 12 kt METAR LFBC 031400Z AUTO 33012KT 300V360 9999 BKN032/// BKN038/// //////CB 11/04 Q1008
14:30
V
9 °C 10 km+ 4.000 ft 310° 310° 8 kt METAR LFBC 031330Z AUTO 31008KT 280V340 9999 FEW027/// SCT033/// BKN040/// //////TCU 09/06 Q1008
14:00
V
9 °C 10 km+ 6.400 ft 010° 010° 6 kt METAR LFBC 031300Z AUTO 01006KT 330V040 9999 SCT043/// BKN064/// //////TCU 09/05 Q1007
13:30
V
8 °C 10 km+ - 010° 010° 7 kt METAR LFBC 031230Z AUTO 01007KT CAVOK 08/05 Q1007
13:00
V
7 °C 10 km+ 3.200 ft 350° 350° 9 kt METAR LFBC 031200Z AUTO 35009KT 320V030 9999 FEW019/// BKN032/// BKN056/// //////CB 07/05 Q1007
12:30
V
9 °C 10 km+ 3.900 ft 320° 320° 14 kt METAR LFBC 031130Z AUTO 32014KT 290V350 9999 FEW031/// BKN039/// BKN047/// //////CB 09/05 Q1007
12:00
V
9 °C 10 km+ 8.400 ft 360° 360° 6 kt METAR LFBC 031100Z AUTO 36006KT 9999 FEW030/// SCT068/// BKN084/// //////CB 09/05 Q1006
11:30
V
9 °C 10 km+ 4.500 ft 310° 310° 8 - 22 kt METAR LFBC 031030Z AUTO 31008G22KT 280V340 9999 -RA FEW024/// SCT031/// BKN045/// //////CB 09/06 Q1006
11:00
V
8 °C 10 km+ 4.000 ft 280° 280° 6 kt METAR LFBC 031000Z AUTO 28006KT 250V320 9999 -RA FEW020/// SCT029/// BKN040/// //////CB 08/05 Q1006
10:30
V
8 °C 10 km+ 4.800 ft 160° 160° 4 kt METAR LFBC 030930Z AUTO 16004KT 9999 BKN048/// BKN056/// OVC070/// //////TCU 08/06 Q1005
10:00
V
8 °C 10 km+ 4.700 ft 190° 190° 4 kt METAR LFBC 030900Z AUTO 19004KT 9999 SCT039/// BKN047/// BKN062/// //////CB 08/06 Q1005
09:30
V
6 °C 10 km+ 3.400 ft 170° 170° 4 kt METAR LFBC 030830Z AUTO 17004KT 130V220 9999 -RA FEW029/// BKN034/// BKN040/// //////CB 06/05 Q1005
09:00
V
7 °C 10 km+ 6.200 ft 160° 160° 4 kt METAR LFBC 030800Z AUTO 16004KT 9999 FEW039/// SCT052/// BKN062/// //////CB 07/05 Q1004
08:30
V
5 °C 10 km+ 6.200 ft 080° 080° 3 kt METAR LFBC 030730Z AUTO 08003KT 9999 FEW049/// BKN062/// BKN130/// ///TCU 05/04 Q1003
08:00
V
4 °C 10 km+ 7.400 ft 090° 090° 4 kt METAR LFBC 030700Z AUTO 09004KT 9999 FEW022/// SCT064/// BKN074/// //////CB 04/03 Q1003
07:30
V
5 °C 10 km+ - 080° 080° 2 kt METAR LFBC 030630Z AUTO 08002KT 9999 FEW034/// SCT042/// //////TCU 05/03 Q1003
07:00
V
6 °C 10 km+ 3.400 ft 060° 060° 4 kt METAR LFBC 030600Z AUTO 06004KT 9999 BKN034/// BKN060/// BKN078/// //////TCU 06/04 Q1003